createdAt,value
2018-02-10T00:01:51.400Z,100109.76
2018-02-10T00:04:18.893Z,100107.88
2018-02-10T00:06:46.366Z,100115.28
2018-02-10T00:09:13.784Z,100113.64
2018-02-10T00:11:41.284Z,100114.36
2018-02-10T00:14:08.688Z,100119.23
2018-02-10T00:16:36.113Z,100119.05
2018-02-10T00:19:03.536Z,100119.89
2018-02-10T00:21:30.952Z,100126.68
2018-02-10T00:23:58.399Z,100125.06
2018-02-10T00:26:25.832Z,100122.58
2018-02-10T00:28:53.304Z,100124.87
2018-02-10T00:31:20.711Z,100121.09
2018-02-10T00:33:48.124Z,100129.01
2018-02-10T00:36:15.569Z,100125.05
2018-02-10T00:38:43.005Z,100128.67
2018-02-10T00:41:10.484Z,100129.25
2018-02-10T00:43:37.894Z,100127.19
2018-02-10T00:46:05.316Z,100128.00
2018-02-10T00:48:32.750Z,100133.98
2018-02-10T00:51:00.208Z,100134.88
2018-02-10T00:53:27.680Z,100136.94
2018-02-10T00:55:55.081Z,100144.88
2018-02-10T00:58:22.509Z,100142.70
2018-02-10T01:00:49.933Z,100139.47
2018-02-10T01:03:17.401Z,100147.48
2018-02-10T01:05:44.848Z,100150.17
2018-02-10T01:08:12.299Z,100146.61
2018-02-10T01:10:39.744Z,100143.23
2018-02-10T01:13:07.194Z,100149.99
2018-02-10T01:15:34.657Z,100152.20
2018-02-10T01:18:02.080Z,100147.92
2018-02-10T01:20:29.507Z,100149.70
2018-02-10T01:22:56.941Z,100145.66
2018-02-10T01:25:24.373Z,100147.18
2018-02-10T01:27:51.813Z,100147.59
2018-02-10T01:30:19.246Z,100147.22
2018-02-10T01:32:46.813Z,100144.88
2018-02-10T01:35:14.252Z,100156.66
2018-02-10T01:37:41.684Z,100156.28
2018-02-10T01:40:09.129Z,100150.22
2018-02-10T01:42:36.553Z,100162.06
2018-02-10T01:45:04.011Z,100151.92
2018-02-10T01:47:31.433Z,100153.09
2018-02-10T01:50:10.553Z,100153.84
2018-02-10T01:52:38.077Z,100145.25
2018-02-10T01:55:05.496Z,100151.59
2018-02-10T01:57:32.904Z,100158.48
2018-02-10T02:00:00.436Z,100159.05
2018-02-10T02:02:27.874Z,100156.00
2018-02-10T02:04:55.308Z,100150.88
2018-02-10T02:07:22.734Z,100156.23
2018-02-10T02:09:50.152Z,100159.52
2018-02-10T02:12:17.577Z,100156.42
2018-02-10T02:14:45.039Z,100151.45
2018-02-10T02:17:12.448Z,100153.69
2018-02-10T02:19:39.901Z,100149.28
2018-02-10T02:22:07.341Z,100155.58
2018-02-10T02:24:34.793Z,100150.56
2018-02-10T02:27:02.260Z,100155.67
2018-02-10T02:29:29.731Z,100153.94
2018-02-10T02:31:57.149Z,100159.42
2018-02-10T02:34:24.574Z,100158.97
2018-02-10T02:36:52.009Z,100155.34
2018-02-10T02:39:19.465Z,100154.34
2018-02-10T02:41:46.916Z,100149.84
2018-02-10T02:44:14.363Z,100150.41
2018-02-10T02:46:41.778Z,100147.60
2018-02-10T02:49:09.203Z,100148.77
2018-02-10T02:51:36.665Z,100148.10
2018-02-10T02:54:09.453Z,100150.55
2018-02-10T02:56:36.880Z,100151.96
2018-02-10T02:59:04.317Z,100153.03
2018-02-10T03:01:31.752Z,100150.04
2018-02-10T03:03:59.169Z,100152.53
2018-02-10T03:06:26.629Z,100152.95
2018-02-10T03:08:54.068Z,100152.48
2018-02-10T03:11:21.513Z,100157.74
2018-02-10T03:13:48.941Z,100161.55
2018-02-10T03:16:16.360Z,100163.27
2018-02-10T03:18:43.789Z,100161.88
2018-02-10T03:21:11.221Z,100162.20
2018-02-10T03:23:38.684Z,100163.70
2018-02-10T03:26:06.092Z,100169.63
2018-02-10T03:28:33.547Z,100170.84
2018-02-10T03:31:00.998Z,100174.64
2018-02-10T03:33:28.432Z,100174.83
2018-02-10T03:35:55.844Z,100171.63
2018-02-10T03:38:23.256Z,100180.27
2018-02-10T03:40:50.685Z,100181.55
2018-02-10T03:43:18.126Z,100184.88
2018-02-10T03:45:45.568Z,100183.80
2018-02-10T03:48:13.030Z,100175.45
2018-02-10T03:50:40.449Z,100186.71
2018-02-10T03:53:07.882Z,100178.48
2018-02-10T03:55:35.349Z,100178.20
2018-02-10T03:58:02.797Z,100181.12
2018-02-10T04:00:30.257Z,100182.95
2018-02-10T04:02:57.685Z,100188.20
2018-02-10T04:05:25.110Z,100192.16
2018-02-10T04:07:52.528Z,100199.24
2018-02-10T04:10:19.969Z,100199.25
2018-02-10T04:12:47.396Z,100205.34
2018-02-10T04:15:14.866Z,100213.38
2018-02-10T04:17:42.272Z,100218.73
2018-02-10T04:20:09.712Z,100227.37
2018-02-10T04:22:37.440Z,100225.17
2018-02-10T04:25:04.861Z,100222.96
2018-02-10T04:27:32.318Z,100218.59
2018-02-10T04:29:59.736Z,100220.33
2018-02-10T04:32:27.165Z,100221.55
2018-02-10T04:34:54.595Z,100220.38
2018-02-10T04:37:22.052Z,100220.14
2018-02-10T04:39:49.499Z,100223.95
2018-02-10T04:42:16.933Z,100229.63
2018-02-10T04:44:44.349Z,100231.89
2018-02-10T04:47:11.798Z,100234.28
2018-02-10T04:49:39.251Z,100237.75
2018-02-10T04:52:06.688Z,100238.98
2018-02-10T04:54:34.130Z,100235.79
2018-02-10T04:57:01.617Z,100245.97
2018-02-10T04:59:29.045Z,100247.80
2018-02-10T05:01:56.484Z,100247.66
2018-02-10T05:04:23.912Z,100250.16
2018-02-10T05:06:51.334Z,100257.87
2018-02-10T05:09:18.745Z,100264.10
2018-02-10T05:11:46.212Z,100257.48
2018-02-10T05:14:13.630Z,100262.42
2018-02-10T05:16:41.056Z,100257.77
2018-02-10T05:19:08.511Z,100261.90
2018-02-10T05:21:35.987Z,100260.73
2018-02-10T05:24:03.420Z,100255.89
2018-02-10T05:26:30.877Z,100258.84
2018-02-10T05:28:58.343Z,100271.81
2018-02-10T05:31:25.759Z,100266.03
2018-02-10T05:33:53.172Z,100269.84
2018-02-10T05:36:20.636Z,100269.12
2018-02-10T05:38:48.051Z,100272.99
2018-02-10T05:41:15.503Z,100259.79
2018-02-10T05:43:42.920Z,100259.64
2018-02-10T05:46:10.364Z,100254.02
2018-02-10T05:48:37.792Z,100259.27
2018-02-10T05:51:05.245Z,100255.84
2018-02-10T05:53:32.721Z,100255.93
2018-02-10T05:56:00.146Z,100248.52
2018-02-10T05:58:27.568Z,100255.28
2018-02-10T06:00:54.988Z,100256.03
2018-02-10T06:03:22.403Z,100256.45
2018-02-10T06:05:49.832Z,100253.58
2018-02-10T06:08:17.260Z,100253.73
2018-02-10T06:10:44.735Z,100259.55
2018-02-10T06:13:12.141Z,100263.83
2018-02-10T06:15:39.573Z,100262.52
2018-02-10T06:18:07.021Z,100258.25
2018-02-10T06:20:34.448Z,100262.28
2018-02-10T06:23:01.868Z,100262.80
2018-02-10T06:25:29.318Z,100263.98
2018-02-10T06:27:56.764Z,100260.45
2018-02-10T06:30:24.225Z,100255.85
2018-02-10T06:32:51.662Z,100253.22
2018-02-10T06:35:19.132Z,100246.54
2018-02-10T06:37:46.643Z,100247.20
2018-02-10T06:40:14.093Z,100250.35
2018-02-10T06:42:41.533Z,100254.81
2018-02-10T06:45:09.006Z,100247.91
2018-02-10T06:47:36.441Z,100259.23
2018-02-10T06:50:03.896Z,100259.74
2018-02-10T06:52:31.320Z,100255.14
2018-02-10T06:54:58.764Z,100252.42
2018-02-10T06:57:26.207Z,100254.11
2018-02-10T06:59:53.648Z,100254.53
2018-02-10T07:02:21.137Z,100259.38
2018-02-10T07:04:48.953Z,100259.75
2018-02-10T07:07:16.356Z,100259.59
2018-02-10T07:09:43.785Z,100260.67
2018-02-10T07:12:11.234Z,100262.41
2018-02-10T07:14:38.648Z,100264.87
2018-02-10T07:17:06.083Z,100264.57
2018-02-10T07:19:33.529Z,100262.18
2018-02-10T07:22:00.951Z,100261.70
2018-02-10T07:24:28.385Z,100263.52
2018-02-10T07:26:55.812Z,100271.57
2018-02-10T07:29:23.236Z,100263.45
2018-02-10T07:31:50.657Z,100267.95
2018-02-10T07:34:18.079Z,100272.55
2018-02-10T07:36:45.516Z,100280.55
2018-02-10T07:39:12.924Z,100282.61
2018-02-10T07:41:40.388Z,100286.98
2018-02-10T07:44:07.813Z,100286.14
2018-02-10T07:46:35.268Z,100289.10
2018-02-10T07:49:02.716Z,100291.49
2018-02-10T07:51:30.160Z,100293.70
2018-02-10T07:53:57.671Z,100299.30
2018-02-10T07:56:25.162Z,100304.69
2018-02-10T07:58:52.568Z,100297.51
2018-02-10T08:01:20.024Z,100297.33
2018-02-10T08:03:47.474Z,100302.35
2018-02-10T08:06:15.021Z,100303.02
2018-02-10T08:08:42.467Z,100300.80
2018-02-10T08:11:10.717Z,100298.86
2018-02-10T08:13:38.186Z,100300.73
2018-02-10T08:16:05.612Z,100303.80
2018-02-10T08:18:33.094Z,100308.79
2018-02-10T08:21:00.565Z,100309.06
2018-02-10T08:23:28.148Z,100305.08
2018-02-10T08:25:55.676Z,100308.13
2018-02-10T08:28:23.475Z,100303.05
2018-02-10T08:30:50.960Z,100302.20
2018-02-10T08:33:18.389Z,100294.06
2018-02-10T08:35:45.865Z,100291.19
2018-02-10T08:38:13.293Z,100292.18
2018-02-10T08:40:40.763Z,100292.69
2018-02-10T08:43:08.201Z,100293.25
2018-02-10T08:45:35.643Z,100302.47
2018-02-10T08:48:03.189Z,100306.53
2018-02-10T08:50:30.629Z,100301.26
2018-02-10T08:52:58.044Z,100302.92
2018-02-10T08:55:25.491Z,100299.22
2018-02-10T08:57:52.945Z,100304.89
2018-02-10T09:00:20.365Z,100307.09
2018-02-10T09:02:47.817Z,100299.88
2018-02-10T09:05:15.241Z,100305.71
2018-02-10T09:07:42.684Z,100299.62
2018-02-10T09:10:10.116Z,100304.73
2018-02-10T09:12:37.537Z,100301.91
2018-02-10T09:15:05.068Z,100313.95
2018-02-10T09:17:32.469Z,100313.53
2018-02-10T09:19:59.873Z,100324.50
2018-02-10T09:22:27.304Z,100325.00
2018-02-10T09:24:54.728Z,100322.92
2018-02-10T09:27:22.158Z,100329.27
2018-02-10T09:29:49.634Z,100327.47
2018-02-10T09:32:17.093Z,100327.35
2018-02-10T09:34:44.525Z,100325.05
2018-02-10T09:37:11.944Z,100329.91
2018-02-10T09:39:39.368Z,100325.72
2018-02-10T09:42:06.800Z,100333.62
2018-02-10T09:44:34.225Z,100333.45
2018-02-10T09:47:01.701Z,100328.18
2018-02-10T09:49:29.145Z,100327.78
2018-02-10T09:51:56.568Z,100332.23
2018-02-10T09:54:24.040Z,100333.95
2018-02-10T09:56:51.539Z,100327.78
2018-02-10T09:59:18.984Z,100332.73
2018-02-10T10:01:46.476Z,100328.02
2018-02-10T10:04:13.843Z,100327.94
2018-02-10T10:06:41.316Z,100333.62
2018-02-10T10:09:08.732Z,100331.08
2018-02-10T10:11:36.173Z,100328.70
2018-02-10T10:14:03.607Z,100331.48
2018-02-10T10:16:31.039Z,100330.83
2018-02-10T10:18:58.461Z,100338.00
2018-02-10T10:21:25.900Z,100335.52
2018-02-10T10:23:53.353Z,100339.14
2018-02-10T10:26:20.815Z,100338.57
2018-02-10T10:28:48.233Z,100345.40
2018-02-10T10:31:15.676Z,100342.86
2018-02-10T10:33:43.120Z,100346.90
2018-02-10T10:36:10.548Z,100342.35
2018-02-10T10:38:37.984Z,100349.36
2018-02-10T10:41:05.876Z,100348.28
2018-02-10T10:43:33.326Z,100349.84
2018-02-10T10:46:00.822Z,100347.30
2018-02-10T10:48:28.298Z,100345.91
2018-02-10T10:50:55.709Z,100347.88
2018-02-10T10:53:23.141Z,100344.50
2018-02-10T10:55:50.619Z,100348.47
2018-02-10T10:58:18.044Z,100340.47
2018-02-10T11:00:45.488Z,100341.77
2018-02-10T11:03:12.932Z,100339.48
2018-02-10T11:05:40.364Z,100339.05
2018-02-10T11:08:07.784Z,100332.63
2018-02-10T11:10:35.263Z,100329.58
2018-02-10T11:13:02.695Z,100324.39
2018-02-10T11:15:30.194Z,100323.23
2018-02-10T11:17:57.663Z,100323.83
2018-02-10T11:20:25.073Z,100322.98
2018-02-10T11:22:52.524Z,100330.15
2018-02-10T11:25:19.961Z,100329.42
2018-02-10T11:27:47.400Z,100327.92
2018-02-10T11:30:14.821Z,100325.32
2018-02-10T11:32:42.264Z,100332.15
2018-02-10T11:35:09.670Z,100328.44
2018-02-10T11:37:37.278Z,100322.42
2018-02-10T11:40:04.752Z,100328.69
2018-02-10T11:42:32.152Z,100325.78
2018-02-10T11:44:59.572Z,100326.13
2018-02-10T11:47:27.005Z,100322.33
2018-02-10T11:49:54.438Z,100321.84
2018-02-10T11:52:21.857Z,100316.09
2018-02-10T11:54:49.281Z,100320.95
2018-02-10T11:57:16.700Z,100323.41
2018-02-10T11:59:44.114Z,100321.84
2018-02-10T12:02:11.540Z,100317.23
2018-02-10T12:04:38.953Z,100326.97
2018-02-10T12:07:06.400Z,100309.75
2018-02-10T12:09:33.809Z,100313.03
2018-02-10T12:12:01.250Z,100308.91
2018-02-10T12:14:28.685Z,100309.77
2018-02-10T12:16:56.099Z,100311.73
2018-02-10T12:19:23.528Z,100309.00
2018-02-10T12:21:50.972Z,100306.70
2018-02-10T12:24:18.384Z,100304.81
2018-02-10T12:26:45.800Z,100306.53
2018-02-10T12:29:13.221Z,100305.39
2018-02-10T12:31:40.640Z,100301.66
2018-02-10T12:34:08.049Z,100298.78
2018-02-10T12:36:35.473Z,100296.66
2018-02-10T12:39:02.898Z,100294.66
2018-02-10T12:41:30.334Z,100298.79
2018-02-10T12:43:57.753Z,100297.06
2018-02-10T12:46:25.175Z,100297.63
2018-02-10T12:48:58.265Z,100293.86
2018-02-10T12:51:25.681Z,100294.59
2018-02-10T12:53:53.109Z,100301.16
2018-02-10T12:56:20.529Z,100292.43
2018-02-10T12:58:47.969Z,100283.14
2018-02-10T13:01:15.389Z,100285.94
2018-02-10T13:03:42.809Z,100281.97
2018-02-10T13:06:10.244Z,100284.94
2018-02-10T13:08:37.664Z,100281.66
2018-02-10T13:11:05.084Z,100279.43
2018-02-10T13:13:32.523Z,100281.21
2018-02-10T13:15:59.937Z,100276.57
2018-02-10T13:18:27.345Z,100278.05
2018-02-10T13:20:54.752Z,100278.23
2018-02-10T13:23:22.174Z,100281.84
2018-02-10T13:25:49.585Z,100278.94
2018-02-10T13:28:17.821Z,100278.66
2018-02-10T13:30:45.241Z,100274.05
2018-02-10T13:33:12.653Z,100268.41
2018-02-10T13:35:40.068Z,100271.67
2018-02-10T13:38:07.479Z,100270.58
2018-02-10T13:40:34.908Z,100265.05
2018-02-10T13:43:02.343Z,100263.25
2018-02-10T13:45:29.821Z,100256.83
2018-02-10T13:47:57.233Z,100259.44
2018-02-10T13:50:24.644Z,100252.03
2018-02-10T13:52:52.085Z,100253.89
2018-02-10T13:55:19.496Z,100253.00
2018-02-10T13:57:46.908Z,100246.97
2018-02-10T14:00:14.333Z,100247.87
2018-02-10T14:02:41.747Z,100243.59
2018-02-10T14:05:09.161Z,100252.47
2018-02-10T14:07:36.569Z,100256.30
2018-02-10T14:10:04.037Z,100257.59
2018-02-10T14:12:31.596Z,100251.75
2018-02-10T14:14:59.074Z,100250.64
2018-02-10T14:17:26.504Z,100247.25
2018-02-10T14:19:53.932Z,100238.33
2018-02-10T14:22:21.358Z,100235.91
2018-02-10T14:24:48.778Z,100237.61
2018-02-10T14:27:16.237Z,100229.21
2018-02-10T14:29:43.656Z,100231.38
2018-02-10T14:32:11.112Z,100234.58
2018-02-10T14:34:38.532Z,100237.34
2018-02-10T14:37:05.969Z,100231.11
2018-02-10T14:39:33.385Z,100237.84
2018-02-10T14:42:01.461Z,100237.70
2018-02-10T14:44:28.922Z,100235.48
2018-02-10T14:46:56.384Z,100234.56
2018-02-10T14:49:24.804Z,100233.87
2018-02-10T14:51:52.252Z,100235.83
2018-02-10T14:54:19.687Z,100233.55
2018-02-10T14:56:47.103Z,100234.42
2018-02-10T14:59:14.513Z,100236.45
2018-02-10T15:01:41.941Z,100242.83
2018-02-10T15:04:09.349Z,100241.19
2018-02-10T15:06:36.836Z,100235.39
2018-02-10T15:09:04.260Z,100232.02
2018-02-10T15:11:31.692Z,100240.53
2018-02-10T15:13:59.104Z,100240.21
2018-02-10T15:16:26.508Z,100248.98
2018-02-10T15:18:53.942Z,100242.04
2018-02-10T15:21:21.352Z,100244.49
2018-02-10T15:23:48.762Z,100243.09
2018-02-10T15:26:16.203Z,100236.80
2018-02-10T15:28:43.604Z,100240.16
2018-02-10T15:34:35.665Z,100234.01
2018-02-10T15:37:03.086Z,100234.67
2018-02-10T15:39:30.601Z,100240.71
2018-02-10T15:41:58.029Z,100235.19
2018-02-10T15:44:25.439Z,100235.42
2018-02-10T15:46:52.841Z,100244.10
2018-02-10T15:49:20.254Z,100236.36
2018-02-10T15:51:47.669Z,100239.47
2018-02-10T15:54:15.098Z,100242.44
2018-02-10T15:56:42.512Z,100244.17
2018-02-10T15:59:09.953Z,100245.65
2018-02-10T16:01:37.366Z,100239.26
2018-02-10T16:04:04.821Z,100243.50
2018-02-10T16:06:32.241Z,100240.53
2018-02-10T16:08:59.715Z,100238.47
2018-02-10T16:11:27.184Z,100228.80
2018-02-10T16:13:54.624Z,100224.97
2018-02-10T16:16:22.093Z,100223.98
2018-02-10T16:18:49.548Z,100223.09
2018-02-10T16:21:16.969Z,100218.64
2018-02-10T16:23:44.423Z,100226.02
2018-02-10T16:26:11.825Z,100223.56
2018-02-10T16:28:39.250Z,100218.30
2018-02-10T16:31:06.657Z,100222.14
2018-02-10T16:33:34.143Z,100219.91
2018-02-10T16:36:01.582Z,100212.45
2018-02-10T16:38:29.003Z,100211.38
2018-02-10T16:40:56.426Z,100205.33
2018-02-10T16:43:23.849Z,100203.42
2018-02-10T16:45:51.270Z,100207.91
2018-02-10T16:48:18.682Z,100205.62
2018-02-10T16:50:46.117Z,100200.38
2018-02-10T16:53:13.534Z,100202.05
2018-02-10T16:55:40.990Z,100206.91
2018-02-10T16:58:08.455Z,100213.92
2018-02-10T17:00:35.869Z,100212.11
2018-02-10T17:03:03.289Z,100211.53
2018-02-10T17:05:30.741Z,100209.58
2018-02-10T17:07:58.221Z,100204.95
2018-02-10T17:10:25.655Z,100207.91
2018-02-10T17:12:53.185Z,100207.68
2018-02-10T17:15:20.638Z,100212.44
2018-02-10T17:17:48.099Z,100205.03
2018-02-10T17:20:15.521Z,100202.16
2018-02-10T17:22:42.957Z,100198.70
2018-02-10T17:25:10.473Z,100196.97
2018-02-10T17:27:37.896Z,100194.58
2018-02-10T17:30:05.345Z,100191.38
2018-02-10T17:32:32.764Z,100192.52
2018-02-10T17:35:09.953Z,100185.62
2018-02-10T17:37:37.408Z,100192.25
2018-02-10T17:40:08.706Z,100192.73
2018-02-10T17:42:36.116Z,100192.68
2018-02-10T17:45:03.532Z,100190.20
2018-02-10T17:47:30.964Z,100198.51
2018-02-10T17:49:58.380Z,100194.38
2018-02-10T17:52:25.798Z,100192.73
2018-02-10T17:54:53.232Z,100194.62
2018-02-10T17:57:20.633Z,100193.64
2018-02-10T17:59:48.056Z,100193.88
2018-02-10T18:02:15.473Z,100194.20
2018-02-10T18:04:46.760Z,100192.66
2018-02-10T18:07:14.204Z,100191.96
2018-02-10T18:09:41.669Z,100185.98
2018-02-10T18:12:09.133Z,100187.27
2018-02-10T18:14:36.549Z,100191.21
2018-02-10T18:17:10.453Z,100190.31
2018-02-10T18:19:37.869Z,100181.59
2018-02-10T18:22:05.349Z,100183.47
2018-02-10T18:24:32.757Z,100175.19
2018-02-10T18:27:00.173Z,100179.28
2018-02-10T18:29:27.591Z,100170.97
2018-02-10T18:31:55.004Z,100169.75
2018-02-10T18:34:28.797Z,100172.67
2018-02-10T18:36:56.218Z,100163.83
2018-02-10T18:39:23.649Z,100157.34
2018-02-10T18:41:51.066Z,100158.48
2018-02-10T18:44:18.481Z,100156.18
2018-02-10T18:46:45.900Z,100147.55
2018-02-10T18:49:13.321Z,100143.18
2018-02-10T18:51:40.749Z,100145.72
2018-02-10T18:54:08.164Z,100144.16
2018-02-10T18:56:35.602Z,100139.23
2018-02-10T18:59:03.012Z,100142.19
2018-02-10T19:01:30.428Z,100137.64
2018-02-10T19:03:57.849Z,100135.20
2018-02-10T19:06:25.304Z,100128.67
2018-02-10T19:08:52.787Z,100120.37
2018-02-10T19:11:20.158Z,100124.80
2018-02-10T19:13:47.602Z,100116.66
2018-02-10T19:16:21.296Z,100113.38
2018-02-10T19:18:48.746Z,100116.16
2018-02-10T19:21:16.153Z,100105.07
2018-02-10T19:23:43.566Z,100109.06
2018-02-10T19:26:11.012Z,100096.01
2018-02-10T19:28:38.481Z,100099.78
2018-02-10T19:31:05.960Z,100097.42
2018-02-10T19:33:33.371Z,100105.87
2018-02-10T19:36:00.973Z,100095.59
2018-02-10T19:38:28.962Z,100095.88
2018-02-10T19:40:56.437Z,100092.73
2018-02-10T19:43:24.470Z,100085.65
2018-02-10T19:45:53.149Z,100088.13
2018-02-10T19:48:20.685Z,100082.82
2018-02-10T19:50:48.128Z,100073.68
2018-02-10T19:53:15.564Z,100070.66
2018-02-10T19:55:43.849Z,100060.98
2018-02-10T19:58:12.304Z,100063.86
2018-02-10T20:00:39.749Z,100058.50
2018-02-10T20:03:08.056Z,100053.31
2018-02-10T20:05:35.925Z,100044.14
2018-02-10T20:08:03.345Z,100057.84
2018-02-10T20:10:31.330Z,100054.17
2018-02-10T20:12:58.818Z,100054.67
2018-02-10T20:15:26.244Z,100049.98
2018-02-10T20:17:53.653Z,100049.00
2018-02-10T20:20:21.089Z,100052.95
2018-02-10T20:22:48.513Z,100046.04
2018-02-10T20:25:15.925Z,100045.38
2018-02-10T20:27:43.432Z,100031.91
2018-02-10T20:30:10.852Z,100030.98
2018-02-10T20:32:38.319Z,100028.39
2018-02-10T20:35:05.741Z,100022.05
2018-02-10T20:37:33.152Z,100025.52
2018-02-10T20:40:00.634Z,100029.78
2018-02-10T20:42:28.019Z,100031.09
2018-02-10T20:44:55.491Z,100027.81
2018-02-10T20:47:22.909Z,100033.30
2018-02-10T20:49:50.356Z,100034.13
2018-02-10T20:52:17.777Z,100034.97
2018-02-10T20:54:45.215Z,100042.61
2018-02-10T20:57:12.697Z,100030.69
2018-02-10T20:59:40.113Z,100029.12
2018-02-10T21:02:07.589Z,100025.83
2018-02-10T21:04:35.010Z,100020.83
2018-02-10T21:07:02.436Z,100020.50
2018-02-10T21:09:29.865Z,100014.09
2018-02-10T21:11:57.337Z,100011.70
2018-02-10T21:14:24.765Z,100002.81
2018-02-10T21:16:52.205Z,99998.31
2018-02-10T21:19:19.658Z,100000.42
2018-02-10T21:21:47.080Z,99990.50
2018-02-10T21:24:14.489Z,99986.55
2018-02-10T21:26:41.924Z,99972.81
2018-02-10T21:29:09.335Z,99973.56
2018-02-10T21:31:36.753Z,99965.61
2018-02-10T21:34:04.168Z,99960.91
2018-02-10T21:36:31.624Z,99965.77
2018-02-10T21:38:59.029Z,99961.65
2018-02-10T21:41:26.446Z,99961.99
2018-02-10T21:43:53.924Z,99962.16
2018-02-10T21:46:21.327Z,99960.94
2018-02-10T21:48:48.776Z,99955.92
2018-02-10T21:51:16.184Z,99958.28
2018-02-10T21:53:43.674Z,99946.86
2018-02-10T21:56:11.121Z,99943.67
2018-02-10T21:58:38.527Z,99948.92
2018-02-10T22:01:05.949Z,99931.09
2018-02-10T22:03:33.361Z,99937.49
2018-02-10T22:06:00.784Z,99924.03
2018-02-10T22:08:28.204Z,99919.94
2018-02-10T22:10:55.693Z,99909.25
2018-02-10T22:13:23.072Z,99902.94
2018-02-10T22:15:50.494Z,99897.68
2018-02-10T22:18:17.924Z,99888.40
2018-02-10T22:20:45.338Z,99878.86
2018-02-10T22:23:12.760Z,99876.65
2018-02-10T22:25:40.177Z,99863.98
2018-02-10T22:28:07.625Z,99866.78
2018-02-10T22:30:35.050Z,99862.59
2018-02-10T22:33:02.497Z,99859.23
2018-02-10T22:35:29.941Z,99869.81
2018-02-10T22:37:57.368Z,99854.84
2018-02-10T22:40:24.785Z,99843.38
2018-02-10T22:42:52.238Z,99841.91
2018-02-10T22:45:19.661Z,99828.00
2018-02-10T22:47:47.090Z,99833.60
2018-02-10T22:50:14.518Z,99824.49
2018-02-10T22:52:41.937Z,99813.31
2018-02-10T22:55:09.385Z,99807.72
2018-02-10T22:57:36.812Z,99806.80
2018-02-10T23:00:04.246Z,99803.11
2018-02-10T23:02:31.679Z,99799.91
2018-02-10T23:04:59.105Z,99797.93
2018-02-10T23:07:26.547Z,99798.02
2018-02-10T23:09:53.973Z,99789.06
2018-02-10T23:12:21.380Z,99780.00
2018-02-10T23:14:48.808Z,99771.46
2018-02-10T23:17:16.215Z,99772.20
2018-02-10T23:19:43.669Z,99768.38
2018-02-10T23:22:11.094Z,99765.81
2018-02-10T23:24:38.528Z,99762.84
2018-02-10T23:27:05.945Z,99751.81
2018-02-10T23:29:33.357Z,99739.45
2018-02-10T23:32:00.786Z,99733.55
2018-02-10T23:34:28.276Z,99726.84
2018-02-10T23:36:55.701Z,99723.63
2018-02-10T23:39:23.117Z,99723.22
2018-02-10T23:41:50.586Z,99721.75
2018-02-10T23:44:18.053Z,99711.99
2018-02-10T23:46:45.466Z,99709.37
2018-02-10T23:49:12.929Z,99703.67
2018-02-10T23:51:40.366Z,99690.50
2018-02-10T23:54:07.816Z,99683.87
2018-02-10T23:56:35.233Z,99673.74
2018-02-10T23:59:02.640Z,99676.37
